<?xml version="1.0" encoding="UTF-8" standalone="no" ?>
<gpx xmlns="http://www.topografix.com/GPX/1/1" xmlns:xsi="http://www.w3.org/2001/XMLSchema-instance" xsi:schemaLocation="http://www.topografix.com/GPX/1/1 http://www.topografix.com/GPX/1/1/gpx.xsd" version="1.1" creator="VisuGPX - https://www.visugpx.com">
  <metadata>
    <name>13138289-GR36_collecte_2021_troncon5</name>
  </metadata>
  <trk>
    <name><![CDATA[13138289-GR36_collecte_2021_troncon5]]></name>
    <extensions>
      <line xmlns="http://www.topografix.com/GPX/gpx_style/0/2">
        <color>0000FF</color>
        <width>4</width>
      </line>
    </extensions>
    <trkseg>
      <trkpt lat="47.25952" lon="0.10739">
        <ele>30</ele>
        <time>2021-05-28T10:28:26Z</time>
      </trkpt>
      <trkpt lat="47.25877" lon="0.10761">
        <ele>29</ele>
        <time>2021-05-28T10:30:08Z</time>
      </trkpt>
      <trkpt lat="47.2585" lon="0.10773">
        <ele>28</ele>
        <time>2021-05-28T10:30:46Z</time>
      </trkpt>
      <trkpt lat="47.258" lon="0.10804">
        <ele>28</ele>
        <time>2021-05-28T10:31:58Z</time>
      </trkpt>
      <trkpt lat="47.2577" lon="0.10821">
        <ele>29</ele>
        <time>2021-05-28T10:32:41Z</time>
      </trkpt>
      <trkpt lat="47.25747" lon="0.10831">
        <ele>29</ele>
        <time>2021-05-28T10:33:13Z</time>
      </trkpt>
      <trkpt lat="47.25725" lon="0.10839">
        <ele>29</ele>
        <time>2021-05-28T10:33:43Z</time>
      </trkpt>
      <trkpt lat="47.25695" lon="0.10845">
        <ele>28</ele>
        <time>2021-05-28T10:34:24Z</time>
      </trkpt>
      <trkpt lat="47.25665" lon="0.10849">
        <ele>28</ele>
        <time>2021-05-28T10:35:04Z</time>
      </trkpt>
      <trkpt lat="47.25639" lon="0.10851">
        <ele>28</ele>
        <time>2021-05-28T10:35:39Z</time>
      </trkpt>
      <trkpt lat="47.25611" lon="0.10847">
        <ele>27</ele>
        <time>2021-05-28T10:36:16Z</time>
      </trkpt>
      <trkpt lat="47.25578" lon="0.1084">
        <ele>27</ele>
        <time>2021-05-28T10:37:01Z</time>
      </trkpt>
      <trkpt lat="47.25553" lon="0.10833">
        <ele>27</ele>
        <time>2021-05-28T10:37:35Z</time>
      </trkpt>
      <trkpt lat="47.25527" lon="0.10824">
        <ele>28</ele>
        <time>2021-05-28T10:38:10Z</time>
      </trkpt>
      <trkpt lat="47.25502" lon="0.10809">
        <ele>28</ele>
        <time>2021-05-28T10:38:46Z</time>
      </trkpt>
      <trkpt lat="47.25479" lon="0.10784">
        <ele>28</ele>
        <time>2021-05-28T10:39:24Z</time>
      </trkpt>
      <trkpt lat="47.25462" lon="0.10762">
        <ele>28</ele>
        <time>2021-05-28T10:39:55Z</time>
      </trkpt>
      <trkpt lat="47.25434" lon="0.10736">
        <ele>28</ele>
        <time>2021-05-28T10:40:39Z</time>
      </trkpt>
      <trkpt lat="47.25429" lon="0.10679">
        <ele>27</ele>
        <time>2021-05-28T10:41:31Z</time>
      </trkpt>
      <trkpt lat="47.25427" lon="0.10636">
        <ele>27</ele>
        <time>2021-05-28T10:42:10Z</time>
      </trkpt>
      <trkpt lat="47.25424" lon="0.10596">
        <ele>26</ele>
        <time>2021-05-28T10:42:46Z</time>
      </trkpt>
      <trkpt lat="47.25419" lon="0.10562">
        <ele>26</ele>
        <time>2021-05-28T10:43:18Z</time>
      </trkpt>
      <trkpt lat="47.25444" lon="0.10544">
        <ele>26</ele>
        <time>2021-05-28T10:43:55Z</time>
      </trkpt>
      <trkpt lat="47.25414" lon="0.1054">
        <ele>27</ele>
        <time>2021-05-28T10:44:35Z</time>
      </trkpt>
      <trkpt lat="47.25388" lon="0.10479">
        <ele>26</ele>
        <time>2021-05-28T10:45:40Z</time>
      </trkpt>
      <trkpt lat="47.25374" lon="0.10451">
        <ele>26</ele>
        <time>2021-05-28T10:46:12Z</time>
      </trkpt>
      <trkpt lat="47.25362" lon="0.10417">
        <ele>26</ele>
        <time>2021-05-28T10:46:47Z</time>
      </trkpt>
      <trkpt lat="47.25352" lon="0.10384">
        <ele>26</ele>
        <time>2021-05-28T10:47:19Z</time>
      </trkpt>
      <trkpt lat="47.25345" lon="0.1035">
        <ele>27</ele>
        <time>2021-05-28T10:47:51Z</time>
      </trkpt>
      <trkpt lat="47.25331" lon="0.1032">
        <ele>27</ele>
        <time>2021-05-28T10:48:24Z</time>
      </trkpt>
      <trkpt lat="47.25308" lon="0.10323">
        <ele>27</ele>
        <time>2021-05-28T10:48:55Z</time>
      </trkpt>
      <trkpt lat="47.25282" lon="0.10328">
        <ele>26</ele>
        <time>2021-05-28T10:49:30Z</time>
      </trkpt>
      <trkpt lat="47.25255" lon="0.10325">
        <ele>25</ele>
        <time>2021-05-28T10:50:06Z</time>
      </trkpt>
      <trkpt lat="47.25228" lon="0.10322">
        <ele>26</ele>
        <time>2021-05-28T10:50:43Z</time>
      </trkpt>
      <trkpt lat="47.25197" lon="0.10327">
        <ele>26</ele>
        <time>2021-05-28T10:51:24Z</time>
      </trkpt>
      <trkpt lat="47.25171" lon="0.1033">
        <ele>27</ele>
        <time>2021-05-28T10:51:59Z</time>
      </trkpt>
      <trkpt lat="47.25142" lon="0.1035">
        <ele>27</ele>
        <time>2021-05-28T10:52:42Z</time>
      </trkpt>
      <trkpt lat="47.2512" lon="0.10369">
        <ele>27</ele>
        <time>2021-05-28T10:53:16Z</time>
      </trkpt>
      <trkpt lat="47.25091" lon="0.1038">
        <ele>27</ele>
        <time>2021-05-28T10:53:56Z</time>
      </trkpt>
      <trkpt lat="47.25064" lon="0.10376">
        <ele>27</ele>
        <time>2021-05-28T10:54:32Z</time>
      </trkpt>
      <trkpt lat="47.25033" lon="0.10374">
        <ele>27</ele>
        <time>2021-05-28T10:55:13Z</time>
      </trkpt>
      <trkpt lat="47.2495" lon="0.10384">
        <ele>27</ele>
        <time>2021-05-28T10:57:04Z</time>
      </trkpt>
      <trkpt lat="47.2492" lon="0.10388">
        <ele>26</ele>
        <time>2021-05-28T10:57:45Z</time>
      </trkpt>
      <trkpt lat="47.24895" lon="0.10394">
        <ele>26</ele>
        <time>2021-05-28T10:58:18Z</time>
      </trkpt>
      <trkpt lat="47.24864" lon="0.10397">
        <ele>26</ele>
        <time>2021-05-28T10:59:00Z</time>
      </trkpt>
      <trkpt lat="47.24838" lon="0.10373">
        <ele>27</ele>
        <time>2021-05-28T10:59:41Z</time>
      </trkpt>
      <trkpt lat="47.24821" lon="0.10348">
        <ele>27</ele>
        <time>2021-05-28T11:00:13Z</time>
      </trkpt>
      <trkpt lat="47.24789" lon="0.10333">
        <ele>29</ele>
        <time>2021-05-28T11:00:58Z</time>
      </trkpt>
      <trkpt lat="47.24765" lon="0.10331">
        <ele>30</ele>
        <time>2021-05-28T11:01:30Z</time>
      </trkpt>
      <trkpt lat="47.2473" lon="0.10332">
        <ele>30</ele>
        <time>2021-05-28T11:02:16Z</time>
      </trkpt>
      <trkpt lat="47.24702" lon="0.10328">
        <ele>29</ele>
        <time>2021-05-28T11:02:54Z</time>
      </trkpt>
      <trkpt lat="47.24671" lon="0.10324">
        <ele>28</ele>
        <time>2021-05-28T11:03:36Z</time>
      </trkpt>
      <trkpt lat="47.24641" lon="0.10322">
        <ele>28</ele>
        <time>2021-05-28T11:04:16Z</time>
      </trkpt>
      <trkpt lat="47.24607" lon="0.10319">
        <ele>28</ele>
        <time>2021-05-28T11:05:01Z</time>
      </trkpt>
      <trkpt lat="47.24579" lon="0.10326">
        <ele>28</ele>
        <time>2021-05-28T11:05:39Z</time>
      </trkpt>
      <trkpt lat="47.24571" lon="0.10412">
        <ele>28</ele>
        <time>2021-05-28T11:06:58Z</time>
      </trkpt>
      <trkpt lat="47.24567" lon="0.10447">
        <ele>29</ele>
        <time>2021-05-28T11:07:30Z</time>
      </trkpt>
      <trkpt lat="47.24563" lon="0.10482">
        <ele>30</ele>
        <time>2021-05-28T11:08:02Z</time>
      </trkpt>
      <trkpt lat="47.24559" lon="0.10518">
        <ele>30</ele>
        <time>2021-05-28T11:08:35Z</time>
      </trkpt>
      <trkpt lat="47.24555" lon="0.10552">
        <ele>29</ele>
        <time>2021-05-28T11:09:06Z</time>
      </trkpt>
      <trkpt lat="47.24553" lon="0.10592">
        <ele>29</ele>
        <time>2021-05-28T11:09:43Z</time>
      </trkpt>
      <trkpt lat="47.2454" lon="0.10651">
        <ele>29</ele>
        <time>2021-05-28T11:10:39Z</time>
      </trkpt>
      <trkpt lat="47.24545" lon="0.10684">
        <ele>29</ele>
        <time>2021-05-28T11:11:09Z</time>
      </trkpt>
      <trkpt lat="47.24564" lon="0.10716">
        <ele>29</ele>
        <time>2021-05-28T11:11:48Z</time>
      </trkpt>
      <trkpt lat="47.2458" lon="0.10747">
        <ele>28</ele>
        <time>2021-05-28T11:12:23Z</time>
      </trkpt>
      <trkpt lat="47.24601" lon="0.10782">
        <ele>29</ele>
        <time>2021-05-28T11:13:05Z</time>
      </trkpt>
      <trkpt lat="47.24575" lon="0.10807">
        <ele>30</ele>
        <time>2021-05-28T11:13:47Z</time>
      </trkpt>
      <trkpt lat="47.24561" lon="0.10852">
        <ele>31</ele>
        <time>2021-05-28T11:14:32Z</time>
      </trkpt>
      <trkpt lat="47.24557" lon="0.10892">
        <ele>31</ele>
        <time>2021-05-28T11:15:08Z</time>
      </trkpt>
      <trkpt lat="47.24553" lon="0.10931">
        <ele>31</ele>
        <time>2021-05-28T11:15:44Z</time>
      </trkpt>
      <trkpt lat="47.24546" lon="0.10969">
        <ele>30</ele>
        <time>2021-05-28T11:16:20Z</time>
      </trkpt>
      <trkpt lat="47.24539" lon="0.11014">
        <ele>28</ele>
        <time>2021-05-28T11:17:02Z</time>
      </trkpt>
      <trkpt lat="47.24512" lon="0.11015">
        <ele>29</ele>
        <time>2021-05-28T11:17:38Z</time>
      </trkpt>
      <trkpt lat="47.24485" lon="0.11008">
        <ele>29</ele>
        <time>2021-05-28T11:18:14Z</time>
      </trkpt>
      <trkpt lat="47.24449" lon="0.11011">
        <ele>30</ele>
        <time>2021-05-28T11:19:02Z</time>
      </trkpt>
      <trkpt lat="47.24419" lon="0.11019">
        <ele>31</ele>
        <time>2021-05-28T11:19:43Z</time>
      </trkpt>
      <trkpt lat="47.24395" lon="0.11024">
        <ele>31</ele>
        <time>2021-05-28T11:20:15Z</time>
      </trkpt>
      <trkpt lat="47.24327" lon="0.11042">
        <ele>30</ele>
        <time>2021-05-28T11:21:48Z</time>
      </trkpt>
      <trkpt lat="47.24304" lon="0.11051">
        <ele>30</ele>
        <time>2021-05-28T11:22:19Z</time>
      </trkpt>
      <trkpt lat="47.24285" lon="0.11075">
        <ele>29</ele>
        <time>2021-05-28T11:22:53Z</time>
      </trkpt>
      <trkpt lat="47.24264" lon="0.11098">
        <ele>29</ele>
        <time>2021-05-28T11:23:28Z</time>
      </trkpt>
      <trkpt lat="47.24241" lon="0.11114">
        <ele>29</ele>
        <time>2021-05-28T11:24:02Z</time>
      </trkpt>
      <trkpt lat="47.24215" lon="0.11124">
        <ele>29</ele>
        <time>2021-05-28T11:24:37Z</time>
      </trkpt>
      <trkpt lat="47.24169" lon="0.11148">
        <ele>29</ele>
        <time>2021-05-28T11:25:43Z</time>
      </trkpt>
      <trkpt lat="47.2414" lon="0.11176">
        <ele>29</ele>
        <time>2021-05-28T11:26:29Z</time>
      </trkpt>
      <trkpt lat="47.24118" lon="0.1121">
        <ele>28</ele>
        <time>2021-05-28T11:27:11Z</time>
      </trkpt>
      <trkpt lat="47.241" lon="0.11241">
        <ele>28</ele>
        <time>2021-05-28T11:27:48Z</time>
      </trkpt>
      <trkpt lat="47.24076" lon="0.11271">
        <ele>28</ele>
        <time>2021-05-28T11:28:30Z</time>
      </trkpt>
      <trkpt lat="47.24051" lon="0.11296">
        <ele>29</ele>
        <time>2021-05-28T11:29:11Z</time>
      </trkpt>
      <trkpt lat="47.24028" lon="0.11317">
        <ele>30</ele>
        <time>2021-05-28T11:29:47Z</time>
      </trkpt>
      <trkpt lat="47.2401" lon="0.11339">
        <ele>31</ele>
        <time>2021-05-28T11:30:18Z</time>
      </trkpt>
      <trkpt lat="47.23986" lon="0.11374">
        <ele>31</ele>
        <time>2021-05-28T11:31:03Z</time>
      </trkpt>
      <trkpt lat="47.23978" lon="0.11406">
        <ele>31</ele>
        <time>2021-05-28T11:31:34Z</time>
      </trkpt>
      <trkpt lat="47.2395" lon="0.11433">
        <ele>30</ele>
        <time>2021-05-28T11:32:19Z</time>
      </trkpt>
      <trkpt lat="47.23925" lon="0.11439">
        <ele>30</ele>
        <time>2021-05-28T11:32:52Z</time>
      </trkpt>
      <trkpt lat="47.23899" lon="0.11446">
        <ele>30</ele>
        <time>2021-05-28T11:33:28Z</time>
      </trkpt>
      <trkpt lat="47.23872" lon="0.11455">
        <ele>31</ele>
        <time>2021-05-28T11:34:05Z</time>
      </trkpt>
      <trkpt lat="47.2385" lon="0.11464">
        <ele>31</ele>
        <time>2021-05-28T11:34:35Z</time>
      </trkpt>
      <trkpt lat="47.23837" lon="0.11512">
        <ele>32</ele>
        <time>2021-05-28T11:35:22Z</time>
      </trkpt>
      <trkpt lat="47.2384" lon="0.11553">
        <ele>31</ele>
        <time>2021-05-28T11:35:59Z</time>
      </trkpt>
      <trkpt lat="47.2385" lon="0.11624">
        <ele>30</ele>
        <time>2021-05-28T11:37:05Z</time>
      </trkpt>
      <trkpt lat="47.23856" lon="0.11661">
        <ele>30</ele>
        <time>2021-05-28T11:37:39Z</time>
      </trkpt>
      <trkpt lat="47.23871" lon="0.11746">
        <ele>31</ele>
        <time>2021-05-28T11:38:59Z</time>
      </trkpt>
      <trkpt lat="47.23878" lon="0.11784">
        <ele>31</ele>
        <time>2021-05-28T11:39:35Z</time>
      </trkpt>
      <trkpt lat="47.23882" lon="0.11819">
        <ele>31</ele>
        <time>2021-05-28T11:40:07Z</time>
      </trkpt>
      <trkpt lat="47.23887" lon="0.11856">
        <ele>31</ele>
        <time>2021-05-28T11:40:41Z</time>
      </trkpt>
      <trkpt lat="47.2389" lon="0.11892">
        <ele>31</ele>
        <time>2021-05-28T11:41:14Z</time>
      </trkpt>
      <trkpt lat="47.23893" lon="0.11944">
        <ele>31</ele>
        <time>2021-05-28T11:42:01Z</time>
      </trkpt>
      <trkpt lat="47.23865" lon="0.11949">
        <ele>32</ele>
        <time>2021-05-28T11:42:39Z</time>
      </trkpt>
      <trkpt lat="47.23836" lon="0.11958">
        <ele>32</ele>
        <time>2021-05-28T11:43:18Z</time>
      </trkpt>
      <trkpt lat="47.23806" lon="0.11953">
        <ele>32</ele>
        <time>2021-05-28T11:43:59Z</time>
      </trkpt>
      <trkpt lat="47.23775" lon="0.11955">
        <ele>32</ele>
        <time>2021-05-28T11:44:40Z</time>
      </trkpt>
      <trkpt lat="47.2374" lon="0.11955">
        <ele>32</ele>
        <time>2021-05-28T11:45:27Z</time>
      </trkpt>
      <trkpt lat="47.23711" lon="0.11959">
        <ele>32</ele>
        <time>2021-05-28T11:46:06Z</time>
      </trkpt>
      <trkpt lat="47.23681" lon="0.11957">
        <ele>33</ele>
        <time>2021-05-28T11:46:46Z</time>
      </trkpt>
      <trkpt lat="47.23655" lon="0.11958">
        <ele>33</ele>
        <time>2021-05-28T11:47:20Z</time>
      </trkpt>
      <trkpt lat="47.2368" lon="0.11962">
        <ele>33</ele>
        <time>2021-05-28T11:47:54Z</time>
      </trkpt>
      <trkpt lat="47.2365" lon="0.11968">
        <ele>32</ele>
        <time>2021-05-28T11:48:34Z</time>
      </trkpt>
      <trkpt lat="47.23583" lon="0.11989">
        <ele>30</ele>
        <time>2021-05-28T11:50:06Z</time>
      </trkpt>
      <trkpt lat="47.23557" lon="0.11996">
        <ele>31</ele>
        <time>2021-05-28T11:50:41Z</time>
      </trkpt>
      <trkpt lat="47.23532" lon="0.12006">
        <ele>33</ele>
        <time>2021-05-28T11:51:16Z</time>
      </trkpt>
      <trkpt lat="47.23506" lon="0.12018">
        <ele>34</ele>
        <time>2021-05-28T11:51:52Z</time>
      </trkpt>
      <trkpt lat="47.2345" lon="0.12031">
        <ele>36</ele>
        <time>2021-05-28T11:53:08Z</time>
      </trkpt>
      <trkpt lat="47.2342" lon="0.12032">
        <ele>36</ele>
        <time>2021-05-28T11:53:48Z</time>
      </trkpt>
      <trkpt lat="47.23401" lon="0.1201">
        <ele>37</ele>
        <time>2021-05-28T11:54:20Z</time>
      </trkpt>
      <trkpt lat="47.23363" lon="0.11952">
        <ele>36</ele>
        <time>2021-05-28T11:55:33Z</time>
      </trkpt>
      <trkpt lat="47.23342" lon="0.11916">
        <ele>35</ele>
        <time>2021-05-28T11:56:16Z</time>
      </trkpt>
      <trkpt lat="47.23325" lon="0.11876">
        <ele>35</ele>
        <time>2021-05-28T11:56:59Z</time>
      </trkpt>
      <trkpt lat="47.23293" lon="0.1181">
        <ele>35</ele>
        <time>2021-05-28T11:58:12Z</time>
      </trkpt>
      <trkpt lat="47.23275" lon="0.11774">
        <ele>34</ele>
        <time>2021-05-28T11:58:53Z</time>
      </trkpt>
      <trkpt lat="47.23256" lon="0.11751">
        <ele>33</ele>
        <time>2021-05-28T11:59:26Z</time>
      </trkpt>
      <trkpt lat="47.23231" lon="0.11716">
        <ele>33</ele>
        <time>2021-05-28T12:00:12Z</time>
      </trkpt>
      <trkpt lat="47.2321" lon="0.11694">
        <ele>33</ele>
        <time>2021-05-28T12:00:46Z</time>
      </trkpt>
      <trkpt lat="47.2318" lon="0.11659">
        <ele>32</ele>
        <time>2021-05-28T12:01:37Z</time>
      </trkpt>
      <trkpt lat="47.23157" lon="0.11625">
        <ele>32</ele>
        <time>2021-05-28T12:02:21Z</time>
      </trkpt>
      <trkpt lat="47.2313" lon="0.11564">
        <ele>33</ele>
        <time>2021-05-28T12:03:27Z</time>
      </trkpt>
      <trkpt lat="47.23117" lon="0.11536">
        <ele>34</ele>
        <time>2021-05-28T12:03:57Z</time>
      </trkpt>
      <trkpt lat="47.231" lon="0.11493">
        <ele>33</ele>
        <time>2021-05-28T12:04:42Z</time>
      </trkpt>
      <trkpt lat="47.23085" lon="0.11453">
        <ele>32</ele>
        <time>2021-05-28T12:05:24Z</time>
      </trkpt>
      <trkpt lat="47.2307" lon="0.11405">
        <ele>31</ele>
        <time>2021-05-28T12:06:12Z</time>
      </trkpt>
      <trkpt lat="47.23059" lon="0.11365">
        <ele>31</ele>
        <time>2021-05-28T12:06:51Z</time>
      </trkpt>
      <trkpt lat="47.2305" lon="0.1133">
        <ele>32</ele>
        <time>2021-05-28T12:07:25Z</time>
      </trkpt>
      <trkpt lat="47.23039" lon="0.11301">
        <ele>33</ele>
        <time>2021-05-28T12:07:55Z</time>
      </trkpt>
      <trkpt lat="47.23029" lon="0.11267">
        <ele>33</ele>
        <time>2021-05-28T12:08:28Z</time>
      </trkpt>
      <trkpt lat="47.23002" lon="0.11193">
        <ele>33</ele>
        <time>2021-05-28T12:09:44Z</time>
      </trkpt>
      <trkpt lat="47.22989" lon="0.11161">
        <ele>33</ele>
        <time>2021-05-28T12:10:18Z</time>
      </trkpt>
      <trkpt lat="47.22976" lon="0.11134">
        <ele>33</ele>
        <time>2021-05-28T12:10:48Z</time>
      </trkpt>
      <trkpt lat="47.22941" lon="0.11062">
        <ele>33</ele>
        <time>2021-05-28T12:12:08Z</time>
      </trkpt>
      <trkpt lat="47.22926" lon="0.11027">
        <ele>33</ele>
        <time>2021-05-28T12:12:46Z</time>
      </trkpt>
      <trkpt lat="47.22907" lon="0.10995">
        <ele>33</ele>
        <time>2021-05-28T12:13:25Z</time>
      </trkpt>
      <trkpt lat="47.22875" lon="0.10938">
        <ele>32</ele>
        <time>2021-05-28T12:14:32Z</time>
      </trkpt>
      <trkpt lat="47.22857" lon="0.10898">
        <ele>32</ele>
        <time>2021-05-28T12:15:15Z</time>
      </trkpt>
      <trkpt lat="47.22836" lon="0.10861">
        <ele>33</ele>
        <time>2021-05-28T12:15:59Z</time>
      </trkpt>
      <trkpt lat="47.22819" lon="0.10839">
        <ele>33</ele>
        <time>2021-05-28T12:16:29Z</time>
      </trkpt>
      <trkpt lat="47.22799" lon="0.10806">
        <ele>33</ele>
        <time>2021-05-28T12:17:09Z</time>
      </trkpt>
      <trkpt lat="47.22782" lon="0.10761">
        <ele>32</ele>
        <time>2021-05-28T12:17:56Z</time>
      </trkpt>
      <trkpt lat="47.22768" lon="0.10717">
        <ele>31</ele>
        <time>2021-05-28T12:18:40Z</time>
      </trkpt>
      <trkpt lat="47.22761" lon="0.10686">
        <ele>31</ele>
        <time>2021-05-28T12:19:09Z</time>
      </trkpt>
      <trkpt lat="47.22751" lon="0.10654">
        <ele>30</ele>
        <time>2021-05-28T12:19:41Z</time>
      </trkpt>
      <trkpt lat="47.22718" lon="0.10582">
        <ele>33</ele>
        <time>2021-05-28T12:21:00Z</time>
      </trkpt>
      <trkpt lat="47.22698" lon="0.10531">
        <ele>33</ele>
        <time>2021-05-28T12:21:53Z</time>
      </trkpt>
      <trkpt lat="47.22682" lon="0.10505">
        <ele>33</ele>
        <time>2021-05-28T12:22:25Z</time>
      </trkpt>
      <trkpt lat="47.22662" lon="0.10467">
        <ele>33</ele>
        <time>2021-05-28T12:23:09Z</time>
      </trkpt>
      <trkpt lat="47.22628" lon="0.10431">
        <ele>32</ele>
        <time>2021-05-28T12:24:05Z</time>
      </trkpt>
      <trkpt lat="47.22607" lon="0.10412">
        <ele>33</ele>
        <time>2021-05-28T12:24:37Z</time>
      </trkpt>
      <trkpt lat="47.22581" lon="0.10372">
        <ele>31</ele>
        <time>2021-05-28T12:25:28Z</time>
      </trkpt>
      <trkpt lat="47.22566" lon="0.10343">
        <ele>31</ele>
        <time>2021-05-28T12:26:01Z</time>
      </trkpt>
      <trkpt lat="47.22552" lon="0.10309">
        <ele>31</ele>
        <time>2021-05-28T12:26:37Z</time>
      </trkpt>
      <trkpt lat="47.22533" lon="0.10265">
        <ele>32</ele>
        <time>2021-05-28T12:27:24Z</time>
      </trkpt>
      <trkpt lat="47.22518" lon="0.10234">
        <ele>31</ele>
        <time>2021-05-28T12:27:58Z</time>
      </trkpt>
      <trkpt lat="47.22498" lon="0.10196">
        <ele>31</ele>
        <time>2021-05-28T12:28:42Z</time>
      </trkpt>
      <trkpt lat="47.22478" lon="0.10155">
        <ele>30</ele>
        <time>2021-05-28T12:29:28Z</time>
      </trkpt>
      <trkpt lat="47.2246" lon="0.10082">
        <ele>31</ele>
        <time>2021-05-28T12:30:38Z</time>
      </trkpt>
      <trkpt lat="47.22452" lon="0.10045">
        <ele>32</ele>
        <time>2021-05-28T12:31:13Z</time>
      </trkpt>
      <trkpt lat="47.22442" lon="0.10011">
        <ele>33</ele>
        <time>2021-05-28T12:31:47Z</time>
      </trkpt>
      <trkpt lat="47.22432" lon="0.09981">
        <ele>33</ele>
        <time>2021-05-28T12:32:17Z</time>
      </trkpt>
      <trkpt lat="47.22418" lon="0.09935">
        <ele>34</ele>
        <time>2021-05-28T12:33:03Z</time>
      </trkpt>
      <trkpt lat="47.22405" lon="0.09896">
        <ele>34</ele>
        <time>2021-05-28T12:33:42Z</time>
      </trkpt>
      <trkpt lat="47.22391" lon="0.09863">
        <ele>34</ele>
        <time>2021-05-28T12:34:18Z</time>
      </trkpt>
      <trkpt lat="47.22373" lon="0.09824">
        <ele>33</ele>
        <time>2021-05-28T12:35:00Z</time>
      </trkpt>
      <trkpt lat="47.22356" lon="0.09789">
        <ele>33</ele>
        <time>2021-05-28T12:35:39Z</time>
      </trkpt>
      <trkpt lat="47.22343" lon="0.09761">
        <ele>33</ele>
        <time>2021-05-28T12:36:10Z</time>
      </trkpt>
      <trkpt lat="47.22334" lon="0.09723">
        <ele>33</ele>
        <time>2021-05-28T12:36:46Z</time>
      </trkpt>
      <trkpt lat="47.22329" lon="0.09689">
        <ele>33</ele>
        <time>2021-05-28T12:37:18Z</time>
      </trkpt>
      <trkpt lat="47.2232" lon="0.09656">
        <ele>33</ele>
        <time>2021-05-28T12:37:50Z</time>
      </trkpt>
      <trkpt lat="47.22307" lon="0.09626">
        <ele>34</ele>
        <time>2021-05-28T12:38:22Z</time>
      </trkpt>
      <trkpt lat="47.22291" lon="0.09597">
        <ele>34</ele>
        <time>2021-05-28T12:38:56Z</time>
      </trkpt>
      <trkpt lat="47.22274" lon="0.09557">
        <ele>34</ele>
        <time>2021-05-28T12:39:39Z</time>
      </trkpt>
      <trkpt lat="47.22242" lon="0.0952">
        <ele>33</ele>
        <time>2021-05-28T12:40:33Z</time>
      </trkpt>
      <trkpt lat="47.22218" lon="0.09488">
        <ele>34</ele>
        <time>2021-05-28T12:41:17Z</time>
      </trkpt>
      <trkpt lat="47.22203" lon="0.09463">
        <ele>34</ele>
        <time>2021-05-28T12:41:47Z</time>
      </trkpt>
      <trkpt lat="47.22185" lon="0.0942">
        <ele>34</ele>
        <time>2021-05-28T12:42:33Z</time>
      </trkpt>
      <trkpt lat="47.22172" lon="0.09378">
        <ele>34</ele>
        <time>2021-05-28T12:43:14Z</time>
      </trkpt>
      <trkpt lat="47.22164" lon="0.09328">
        <ele>33</ele>
        <time>2021-05-28T12:44:01Z</time>
      </trkpt>
      <trkpt lat="47.22166" lon="0.09281">
        <ele>33</ele>
        <time>2021-05-28T12:44:44Z</time>
      </trkpt>
      <trkpt lat="47.22176" lon="0.09247">
        <ele>33</ele>
        <time>2021-05-28T12:45:17Z</time>
      </trkpt>
      <trkpt lat="47.22193" lon="0.09225">
        <ele>32</ele>
        <time>2021-05-28T12:45:47Z</time>
      </trkpt>
      <trkpt lat="47.22217" lon="0.09207">
        <ele>32</ele>
        <time>2021-05-28T12:46:23Z</time>
      </trkpt>
      <trkpt lat="47.22209" lon="0.09167">
        <ele>32</ele>
        <time>2021-05-28T12:47:01Z</time>
      </trkpt>
      <trkpt lat="47.22193" lon="0.09135">
        <ele>32</ele>
        <time>2021-05-28T12:47:37Z</time>
      </trkpt>
      <trkpt lat="47.2218" lon="0.09084">
        <ele>34</ele>
        <time>2021-05-28T12:48:27Z</time>
      </trkpt>
      <trkpt lat="47.22158" lon="0.0902">
        <ele>35</ele>
        <time>2021-05-28T12:49:32Z</time>
      </trkpt>
      <trkpt lat="47.22145" lon="0.08984">
        <ele>34</ele>
        <time>2021-05-28T12:50:09Z</time>
      </trkpt>
      <trkpt lat="47.22133" lon="0.08945">
        <ele>34</ele>
        <time>2021-05-28T12:50:47Z</time>
      </trkpt>
      <trkpt lat="47.22126" lon="0.0891">
        <ele>34</ele>
        <time>2021-05-28T12:51:20Z</time>
      </trkpt>
      <trkpt lat="47.22114" lon="0.08881">
        <ele>33</ele>
        <time>2021-05-28T12:51:51Z</time>
      </trkpt>
      <trkpt lat="47.22098" lon="0.08856">
        <ele>33</ele>
        <time>2021-05-28T12:52:22Z</time>
      </trkpt>
      <trkpt lat="47.22084" lon="0.08828">
        <ele>33</ele>
        <time>2021-05-28T12:52:54Z</time>
      </trkpt>
      <trkpt lat="47.2206" lon="0.08801">
        <ele>32</ele>
        <time>2021-05-28T12:53:34Z</time>
      </trkpt>
      <trkpt lat="47.22048" lon="0.08768">
        <ele>32</ele>
        <time>2021-05-28T12:54:08Z</time>
      </trkpt>
      <trkpt lat="47.22039" lon="0.08735">
        <ele>32</ele>
        <time>2021-05-28T12:54:40Z</time>
      </trkpt>
      <trkpt lat="47.22027" lon="0.08706">
        <ele>33</ele>
        <time>2021-05-28T12:55:11Z</time>
      </trkpt>
      <trkpt lat="47.22007" lon="0.08656">
        <ele>34</ele>
        <time>2021-05-28T12:56:04Z</time>
      </trkpt>
      <trkpt lat="47.21999" lon="0.08625">
        <ele>33</ele>
        <time>2021-05-28T12:56:34Z</time>
      </trkpt>
      <trkpt lat="47.21987" lon="0.08585">
        <ele>32</ele>
        <time>2021-05-28T12:57:13Z</time>
      </trkpt>
      <trkpt lat="47.21978" lon="0.08539">
        <ele>31</ele>
        <time>2021-05-28T12:57:57Z</time>
      </trkpt>
      <trkpt lat="47.2197" lon="0.08502">
        <ele>29</ele>
        <time>2021-05-28T12:58:32Z</time>
      </trkpt>
      <trkpt lat="47.21959" lon="0.08465">
        <ele>29</ele>
        <time>2021-05-28T12:59:09Z</time>
      </trkpt>
      <trkpt lat="47.21947" lon="0.08431">
        <ele>29</ele>
        <time>2021-05-28T12:59:43Z</time>
      </trkpt>
      <trkpt lat="47.21932" lon="0.08394">
        <ele>29</ele>
        <time>2021-05-28T13:00:22Z</time>
      </trkpt>
      <trkpt lat="47.21919" lon="0.08362">
        <ele>30</ele>
        <time>2021-05-28T13:00:56Z</time>
      </trkpt>
      <trkpt lat="47.21901" lon="0.08319">
        <ele>30</ele>
        <time>2021-05-28T13:01:42Z</time>
      </trkpt>
      <trkpt lat="47.21872" lon="0.0826">
        <ele>30</ele>
        <time>2021-05-28T13:02:48Z</time>
      </trkpt>
      <trkpt lat="47.21859" lon="0.08229">
        <ele>30</ele>
        <time>2021-05-28T13:03:21Z</time>
      </trkpt>
      <trkpt lat="47.21838" lon="0.08195">
        <ele>29</ele>
        <time>2021-05-28T13:04:03Z</time>
      </trkpt>
      <trkpt lat="47.21809" lon="0.08165">
        <ele>29</ele>
        <time>2021-05-28T13:04:50Z</time>
      </trkpt>
      <trkpt lat="47.21782" lon="0.08152">
        <ele>30</ele>
        <time>2021-05-28T13:05:28Z</time>
      </trkpt>
      <trkpt lat="47.21768" lon="0.08108">
        <ele>30</ele>
        <time>2021-05-28T13:06:12Z</time>
      </trkpt>
      <trkpt lat="47.21761" lon="0.08073">
        <ele>30</ele>
        <time>2021-05-28T13:06:45Z</time>
      </trkpt>
      <trkpt lat="47.21749" lon="0.08033">
        <ele>31</ele>
        <time>2021-05-28T13:07:25Z</time>
      </trkpt>
      <trkpt lat="47.21737" lon="0.08002">
        <ele>31</ele>
        <time>2021-05-28T13:07:57Z</time>
      </trkpt>
      <trkpt lat="47.21729" lon="0.07969">
        <ele>30</ele>
        <time>2021-05-28T13:08:29Z</time>
      </trkpt>
      <trkpt lat="47.21719" lon="0.07935">
        <ele>30</ele>
        <time>2021-05-28T13:09:02Z</time>
      </trkpt>
      <trkpt lat="47.21714" lon="0.07886">
        <ele>30</ele>
        <time>2021-05-28T13:09:47Z</time>
      </trkpt>
      <trkpt lat="47.21717" lon="0.07847">
        <ele>31</ele>
        <time>2021-05-28T13:10:23Z</time>
      </trkpt>
      <trkpt lat="47.21717" lon="0.07811">
        <ele>31</ele>
        <time>2021-05-28T13:10:55Z</time>
      </trkpt>
      <trkpt lat="47.21718" lon="0.0776">
        <ele>32</ele>
        <time>2021-05-28T13:11:42Z</time>
      </trkpt>
      <trkpt lat="47.21721" lon="0.07713">
        <ele>33</ele>
        <time>2021-05-28T13:12:24Z</time>
      </trkpt>
      <trkpt lat="47.21722" lon="0.07657">
        <ele>33</ele>
        <time>2021-05-28T13:13:15Z</time>
      </trkpt>
      <trkpt lat="47.21724" lon="0.07618">
        <ele>33</ele>
        <time>2021-05-28T13:13:51Z</time>
      </trkpt>
      <trkpt lat="47.21723" lon="0.07584">
        <ele>33</ele>
        <time>2021-05-28T13:14:21Z</time>
      </trkpt>
      <trkpt lat="47.21721" lon="0.07541">
        <ele>33</ele>
        <time>2021-05-28T13:15:01Z</time>
      </trkpt>
      <trkpt lat="47.21725" lon="0.07492">
        <ele>33</ele>
        <time>2021-05-28T13:15:45Z</time>
      </trkpt>
      <trkpt lat="47.21732" lon="0.07458">
        <ele>33</ele>
        <time>2021-05-28T13:16:17Z</time>
      </trkpt>
      <trkpt lat="47.21741" lon="0.0742">
        <ele>33</ele>
        <time>2021-05-28T13:16:54Z</time>
      </trkpt>
      <trkpt lat="47.21748" lon="0.07372">
        <ele>33</ele>
        <time>2021-05-28T13:17:38Z</time>
      </trkpt>
      <trkpt lat="47.21753" lon="0.07293">
        <ele>33</ele>
        <time>2021-05-28T13:18:50Z</time>
      </trkpt>
      <trkpt lat="47.21759" lon="0.07252">
        <ele>33</ele>
        <time>2021-05-28T13:19:28Z</time>
      </trkpt>
      <trkpt lat="47.21759" lon="0.07217">
        <ele>32</ele>
        <time>2021-05-28T13:20:00Z</time>
      </trkpt>
      <trkpt lat="47.21758" lon="0.07183">
        <ele>31</ele>
        <time>2021-05-28T13:20:31Z</time>
      </trkpt>
      <trkpt lat="47.21768" lon="0.07141">
        <ele>31</ele>
        <time>2021-05-28T13:21:11Z</time>
      </trkpt>
      <trkpt lat="47.21776" lon="0.07097">
        <ele>31</ele>
        <time>2021-05-28T13:21:53Z</time>
      </trkpt>
      <trkpt lat="47.21785" lon="0.07023">
        <ele>31</ele>
        <time>2021-05-28T13:23:01Z</time>
      </trkpt>
      <trkpt lat="47.21791" lon="0.0698">
        <ele>30</ele>
        <time>2021-05-28T13:23:41Z</time>
      </trkpt>
      <trkpt lat="47.21795" lon="0.06934">
        <ele>29</ele>
        <time>2021-05-28T13:24:23Z</time>
      </trkpt>
      <trkpt lat="47.21801" lon="0.06849">
        <ele>29</ele>
        <time>2021-05-28T13:25:40Z</time>
      </trkpt>
      <trkpt lat="47.21809" lon="0.06801">
        <ele>29</ele>
        <time>2021-05-28T13:26:25Z</time>
      </trkpt>
      <trkpt lat="47.2182" lon="0.06756">
        <ele>30</ele>
        <time>2021-05-28T13:27:08Z</time>
      </trkpt>
      <trkpt lat="47.2183" lon="0.0672">
        <ele>30</ele>
        <time>2021-05-28T13:27:43Z</time>
      </trkpt>
      <trkpt lat="47.21839" lon="0.06674">
        <ele>29</ele>
        <time>2021-05-28T13:28:27Z</time>
      </trkpt>
      <trkpt lat="47.21849" lon="0.06628">
        <ele>29</ele>
        <time>2021-05-28T13:29:11Z</time>
      </trkpt>
      <trkpt lat="47.2186" lon="0.06595">
        <ele>30</ele>
        <time>2021-05-28T13:29:44Z</time>
      </trkpt>
      <trkpt lat="47.21871" lon="0.06561">
        <ele>31</ele>
        <time>2021-05-28T13:30:18Z</time>
      </trkpt>
      <trkpt lat="47.21888" lon="0.06483">
        <ele>34</ele>
        <time>2021-05-28T13:31:32Z</time>
      </trkpt>
      <trkpt lat="47.21902" lon="0.06443">
        <ele>34</ele>
        <time>2021-05-28T13:32:13Z</time>
      </trkpt>
      <trkpt lat="47.21914" lon="0.06416">
        <ele>35</ele>
        <time>2021-05-28T13:32:42Z</time>
      </trkpt>
      <trkpt lat="47.21927" lon="0.06384">
        <ele>34</ele>
        <time>2021-05-28T13:33:16Z</time>
      </trkpt>
      <trkpt lat="47.21944" lon="0.06348">
        <ele>33</ele>
        <time>2021-05-28T13:33:56Z</time>
      </trkpt>
      <trkpt lat="47.21962" lon="0.06308">
        <ele>32</ele>
        <time>2021-05-28T13:34:39Z</time>
      </trkpt>
      <trkpt lat="47.21978" lon="0.06279">
        <ele>31</ele>
        <time>2021-05-28T13:35:13Z</time>
      </trkpt>
      <trkpt lat="47.21993" lon="0.06249">
        <ele>31</ele>
        <time>2021-05-28T13:35:47Z</time>
      </trkpt>
      <trkpt lat="47.22013" lon="0.06212">
        <ele>31</ele>
        <time>2021-05-28T13:36:30Z</time>
      </trkpt>
      <trkpt lat="47.22028" lon="0.06165">
        <ele>31</ele>
        <time>2021-05-28T13:37:17Z</time>
      </trkpt>
      <trkpt lat="47.22053" lon="0.06094">
        <ele>32</ele>
        <time>2021-05-28T13:38:29Z</time>
      </trkpt>
      <trkpt lat="47.22067" lon="0.06055">
        <ele>33</ele>
        <time>2021-05-28T13:39:09Z</time>
      </trkpt>
      <trkpt lat="47.22093" lon="0.05975">
        <ele>32</ele>
        <time>2021-05-28T13:40:30Z</time>
      </trkpt>
      <trkpt lat="47.2211" lon="0.05941">
        <ele>30</ele>
        <time>2021-05-28T13:41:08Z</time>
      </trkpt>
      <trkpt lat="47.22148" lon="0.05953">
        <ele>31</ele>
        <time>2021-05-28T13:42:00Z</time>
      </trkpt>
      <trkpt lat="47.22175" lon="0.05966">
        <ele>30</ele>
        <time>2021-05-28T13:42:38Z</time>
      </trkpt>
      <trkpt lat="47.22202" lon="0.05941">
        <ele>31</ele>
        <time>2021-05-28T13:43:20Z</time>
      </trkpt>
      <trkpt lat="47.22298" lon="0.05966">
        <ele>30</ele>
        <time>2021-05-28T13:45:30Z</time>
      </trkpt>
      <trkpt lat="47.22269" lon="0.05962">
        <ele>30</ele>
        <time>2021-05-28T13:46:09Z</time>
      </trkpt>
      <trkpt lat="47.22242" lon="0.05941">
        <ele>31</ele>
        <time>2021-05-28T13:46:50Z</time>
      </trkpt>
      <trkpt lat="47.22215" lon="0.05916">
        <ele>32</ele>
        <time>2021-05-28T13:47:33Z</time>
      </trkpt>
      <trkpt lat="47.22214" lon="0.0588">
        <ele>32</ele>
        <time>2021-05-28T13:48:05Z</time>
      </trkpt>
      <trkpt lat="47.22222" lon="0.05837">
        <ele>32</ele>
        <time>2021-05-28T13:48:46Z</time>
      </trkpt>
      <trkpt lat="47.22235" lon="0.05797">
        <ele>32</ele>
        <time>2021-05-28T13:49:26Z</time>
      </trkpt>
      <trkpt lat="47.22243" lon="0.05761">
        <ele>31</ele>
        <time>2021-05-28T13:50:00Z</time>
      </trkpt>
      <trkpt lat="47.22271" lon="0.05733">
        <ele>30</ele>
        <time>2021-05-28T13:50:45Z</time>
      </trkpt>
      <trkpt lat="47.22309" lon="0.05675">
        <ele>29</ele>
        <time>2021-05-28T13:51:58Z</time>
      </trkpt>
      <trkpt lat="47.22338" lon="0.05647">
        <ele>28</ele>
        <time>2021-05-28T13:52:45Z</time>
      </trkpt>
      <trkpt lat="47.22367" lon="0.05626">
        <ele>28</ele>
        <time>2021-05-28T13:53:28Z</time>
      </trkpt>
      <trkpt lat="47.22392" lon="0.05611">
        <ele>28</ele>
        <time>2021-05-28T13:54:04Z</time>
      </trkpt>
      <trkpt lat="47.22418" lon="0.05597">
        <ele>28</ele>
        <time>2021-05-28T13:54:41Z</time>
      </trkpt>
      <trkpt lat="47.22441" lon="0.05582">
        <ele>29</ele>
        <time>2021-05-28T13:55:14Z</time>
      </trkpt>
      <trkpt lat="47.22463" lon="0.05562">
        <ele>29</ele>
        <time>2021-05-28T13:55:49Z</time>
      </trkpt>
      <trkpt lat="47.22489" lon="0.05534">
        <ele>29</ele>
        <time>2021-05-28T13:56:32Z</time>
      </trkpt>
      <trkpt lat="47.22512" lon="0.05513">
        <ele>29</ele>
        <time>2021-05-28T13:57:08Z</time>
      </trkpt>
      <trkpt lat="47.22534" lon="0.0549">
        <ele>29</ele>
        <time>2021-05-28T13:57:44Z</time>
      </trkpt>
      <trkpt lat="47.22552" lon="0.05469">
        <ele>28</ele>
        <time>2021-05-28T13:58:15Z</time>
      </trkpt>
      <trkpt lat="47.22572" lon="0.05427">
        <ele>28</ele>
        <time>2021-05-28T13:59:01Z</time>
      </trkpt>
      <trkpt lat="47.22586" lon="0.05381">
        <ele>29</ele>
        <time>2021-05-28T13:59:47Z</time>
      </trkpt>
      <trkpt lat="47.22607" lon="0.05338">
        <ele>31</ele>
        <time>2021-05-28T14:00:35Z</time>
      </trkpt>
      <trkpt lat="47.22625" lon="0.05301">
        <ele>30</ele>
        <time>2021-05-28T14:01:16Z</time>
      </trkpt>
      <trkpt lat="47.22653" lon="0.05236">
        <ele>29</ele>
        <time>2021-05-28T14:02:26Z</time>
      </trkpt>
      <trkpt lat="47.22668" lon="0.05198">
        <ele>29</ele>
        <time>2021-05-28T14:03:06Z</time>
      </trkpt>
      <trkpt lat="47.22676" lon="0.05167">
        <ele>29</ele>
        <time>2021-05-28T14:03:36Z</time>
      </trkpt>
      <trkpt lat="47.22683" lon="0.05129">
        <ele>29</ele>
        <time>2021-05-28T14:04:11Z</time>
      </trkpt>
      <trkpt lat="47.22696" lon="0.0509">
        <ele>28</ele>
        <time>2021-05-28T14:04:51Z</time>
      </trkpt>
      <trkpt lat="47.22713" lon="0.05058">
        <ele>28</ele>
        <time>2021-05-28T14:05:27Z</time>
      </trkpt>
      <trkpt lat="47.22725" lon="0.05028">
        <ele>29</ele>
        <time>2021-05-28T14:05:59Z</time>
      </trkpt>
      <trkpt lat="47.22741" lon="0.04996">
        <ele>29</ele>
        <time>2021-05-28T14:06:35Z</time>
      </trkpt>
      <trkpt lat="47.22677" lon="0.04961">
        <ele>27</ele>
        <time>2021-05-28T14:08:06Z</time>
      </trkpt>
      <trkpt lat="47.22627" lon="0.04935">
        <ele>27</ele>
        <time>2021-05-28T14:09:17Z</time>
      </trkpt>
      <trkpt lat="47.22554" lon="0.04884">
        <ele>27</ele>
        <time>2021-05-28T14:11:05Z</time>
      </trkpt>
      <trkpt lat="47.22444" lon="0.04815">
        <ele>27</ele>
        <time>2021-05-28T14:13:44Z</time>
      </trkpt>
      <trkpt lat="47.22318" lon="0.04729">
        <ele>28</ele>
        <time>2021-05-28T14:16:50Z</time>
      </trkpt>
      <trkpt lat="47.22248" lon="0.04678">
        <ele>32</ele>
        <time>2021-05-28T14:18:34Z</time>
      </trkpt>
      <trkpt lat="47.22304" lon="0.04609">
        <ele>31</ele>
        <time>2021-05-28T14:20:11Z</time>
      </trkpt>
      <trkpt lat="47.22353" lon="0.04549">
        <ele>31</ele>
        <time>2021-05-28T14:21:36Z</time>
      </trkpt>
      <trkpt lat="47.22377" lon="0.04459">
        <ele>31</ele>
        <time>2021-05-28T14:23:04Z</time>
      </trkpt>
      <trkpt lat="47.224" lon="0.04386">
        <ele>30</ele>
        <time>2021-05-28T14:24:17Z</time>
      </trkpt>
      <trkpt lat="47.22423" lon="0.0427">
        <ele>31</ele>
        <time>2021-05-28T14:26:06Z</time>
      </trkpt>
      <trkpt lat="47.22484" lon="0.04176">
        <ele>29</ele>
        <time>2021-05-28T14:28:04Z</time>
      </trkpt>
      <trkpt lat="47.22528" lon="0.04094">
        <ele>30</ele>
        <time>2021-05-28T14:29:39Z</time>
      </trkpt>
      <trkpt lat="47.22572" lon="0.04026">
        <ele>29</ele>
        <time>2021-05-28T14:31:04Z</time>
      </trkpt>
      <trkpt lat="47.22493" lon="0.03905">
        <ele>31</ele>
        <time>2021-05-28T14:33:36Z</time>
      </trkpt>
      <trkpt lat="47.22426" lon="0.03802">
        <ele>30</ele>
        <time>2021-05-28T14:35:45Z</time>
      </trkpt>
      <trkpt lat="47.22385" lon="0.03742">
        <ele>32</ele>
        <time>2021-05-28T14:37:03Z</time>
      </trkpt>
      <trkpt lat="47.22333" lon="0.03656">
        <ele>32</ele>
        <time>2021-05-28T14:38:47Z</time>
      </trkpt>
      <trkpt lat="47.22272" lon="0.03549">
        <ele>33</ele>
        <time>2021-05-28T14:40:54Z</time>
      </trkpt>
      <trkpt lat="47.22251" lon="0.03493">
        <ele>35</ele>
        <time>2021-05-28T14:41:52Z</time>
      </trkpt>
    </trkseg>
  </trk>
</gpx>